createdAt,value
2022-11-21T00:01:12.284Z,10.10
2022-11-21T00:03:39.160Z,9.93
2022-11-21T00:06:06.194Z,10.29
2022-11-21T00:08:33.224Z,10.16
2022-11-21T00:11:00.490Z,10.14
2022-11-21T00:13:27.393Z,10.13
2022-11-21T00:15:54.180Z,10.36
2022-11-21T00:18:20.961Z,10.11
2022-11-21T00:20:47.918Z,10.55
2022-11-21T00:23:14.903Z,10.13
2022-11-21T00:25:41.637Z,10.22
2022-11-21T00:28:08.392Z,10.74
2022-11-21T00:30:35.317Z,10.85
2022-11-21T00:33:02.233Z,10.36
2022-11-21T00:35:29.012Z,9.90
2022-11-21T00:37:56.259Z,9.92
2022-11-21T00:40:23.307Z,9.98
2022-11-21T00:42:50.208Z,9.81
2022-11-21T00:45:23.902Z,9.92
2022-11-21T00:47:51.248Z,9.55
2022-11-21T00:50:18.175Z,9.62
2022-11-21T00:52:45.127Z,9.43
2022-11-21T00:55:11.943Z,9.40
2022-11-21T00:57:38.706Z,9.67
2022-11-21T01:00:06.275Z,9.27
2022-11-21T01:02:33.407Z,10.38
2022-11-21T01:05:00.808Z,10.04
2022-11-21T01:07:27.653Z,9.98
2022-11-21T01:09:54.459Z,9.79
2022-11-21T01:12:21.240Z,9.28
2022-11-21T01:14:48.244Z,9.53
2022-11-21T01:17:14.995Z,9.47
2022-11-21T01:19:41.808Z,9.69
2022-11-21T01:22:08.826Z,9.55
2022-11-21T01:24:35.563Z,9.77
2022-11-21T01:27:02.861Z,9.65
2022-11-21T01:29:29.621Z,9.72
2022-11-21T01:31:56.981Z,10.02
2022-11-21T01:34:23.994Z,9.87
2022-11-21T01:36:50.898Z,10.30
2022-11-21T01:39:17.712Z,9.57
2022-11-21T01:41:46.063Z,9.32
2022-11-21T01:44:26.892Z,9.44
2022-11-21T01:46:54.087Z,9.06
2022-11-21T01:49:25.231Z,9.38
2022-11-21T01:51:52.013Z,9.28
2022-11-21T01:54:33.234Z,9.09
2022-11-21T01:57:08.794Z,9.40
2022-11-21T01:59:46.094Z,9.33
2022-11-21T02:02:15.900Z,9.19
2022-11-21T02:04:43.919Z,9.14
2022-11-21T02:07:12.171Z,9.28
2022-11-21T02:09:41.430Z,9.04
2022-11-21T02:12:12.099Z,9.83
2022-11-21T02:14:40.463Z,9.52
2022-11-21T02:17:07.925Z,9.67
2022-11-21T02:19:47.972Z,9.49
2022-11-21T02:22:23.931Z,10.07
2022-11-21T02:25:09.023Z,10.29
2022-11-21T02:27:35.920Z,9.51
2022-11-21T02:30:03.731Z,9.34
2022-11-21T02:32:39.465Z,9.57
2022-11-21T02:35:07.458Z,10.21
2022-11-21T02:37:36.168Z,9.57
2022-11-21T02:40:16.029Z,10.05
2022-11-21T02:43:07.653Z,9.66
2022-11-21T02:45:45.307Z,10.12
2022-11-21T02:48:12.990Z,10.30
2022-11-21T02:50:41.975Z,10.31
2022-11-21T02:53:11.349Z,9.93
2022-11-21T02:55:38.399Z,9.98
2022-11-21T02:58:05.897Z,9.98
2022-11-21T03:00:34.081Z,9.84
2022-11-21T03:03:01.249Z,9.91
2022-11-21T03:05:28.173Z,10.02
2022-11-21T03:07:54.899Z,10.15
2022-11-21T03:10:21.832Z,10.34
2022-11-21T03:12:48.694Z,10.58
2022-11-21T03:15:16.339Z,10.51
2022-11-21T03:17:43.607Z,10.61
2022-11-21T03:20:10.885Z,10.69
2022-11-21T03:22:37.668Z,10.60
2022-11-21T03:25:05.526Z,10.39
2022-11-21T03:27:32.471Z,10.70
2022-11-21T03:29:59.614Z,10.28
2022-11-21T03:32:26.419Z,10.17
2022-11-21T03:34:53.619Z,10.27
2022-11-21T03:37:20.362Z,10.37
2022-11-21T03:39:47.095Z,9.81
2022-11-21T03:42:13.788Z,10.19
2022-11-21T03:44:40.727Z,10.26
2022-11-21T03:47:07.338Z,10.07
2022-11-21T03:49:34.092Z,9.77
2022-11-21T03:52:00.782Z,9.72
2022-11-21T03:54:27.914Z,10.09
2022-11-21T03:56:54.990Z,10.26
2022-11-21T03:59:21.708Z,10.10
2022-11-21T04:01:48.665Z,9.97
2022-11-21T04:04:15.565Z,9.68
2022-11-21T04:06:42.422Z,9.62
2022-11-21T04:09:09.214Z,9.96
2022-11-21T04:11:35.994Z,9.92
2022-11-21T04:14:02.908Z,9.92
2022-11-21T04:16:29.541Z,9.96
2022-11-21T04:18:56.326Z,10.04
2022-11-21T04:21:23.026Z,9.70
2022-11-21T04:23:49.831Z,9.84
2022-11-21T04:26:16.611Z,9.22
2022-11-21T04:28:43.336Z,9.56
2022-11-21T04:31:11.435Z,9.28
2022-11-21T04:33:39.514Z,9.51
2022-11-21T04:36:09.956Z,9.48
2022-11-21T04:38:37.480Z,9.36
2022-11-21T04:41:05.062Z,9.70
2022-11-21T04:43:32.154Z,9.78
2022-11-21T04:45:58.972Z,9.30
2022-11-21T04:48:25.907Z,9.57
2022-11-21T04:50:52.591Z,9.58
2022-11-21T04:53:19.474Z,9.53
2022-11-21T04:55:46.155Z,9.84
2022-11-21T04:58:12.960Z,10.26
2022-11-21T05:00:39.678Z,10.03
2022-11-21T05:03:06.978Z,10.07
2022-11-21T05:05:34.001Z,10.40
2022-11-21T05:08:00.765Z,10.15
2022-11-21T05:10:27.828Z,9.77
2022-11-21T05:13:17.777Z,9.95
2022-11-21T05:15:44.927Z,9.62
2022-11-21T05:18:12.099Z,9.82
2022-11-21T05:20:39.034Z,10.16
2022-11-21T05:23:06.039Z,9.60
2022-11-21T05:25:33.858Z,9.72
2022-11-21T05:28:00.664Z,10.21
2022-11-21T05:30:27.526Z,9.95
2022-11-21T05:32:54.445Z,9.42
2022-11-21T05:35:21.229Z,9.41
2022-11-21T05:37:48.231Z,9.37
2022-11-21T05:40:21.878Z,9.32
2022-11-21T05:43:07.214Z,9.76
2022-11-21T05:45:34.254Z,9.71
2022-11-21T05:48:01.142Z,9.67
2022-11-21T05:50:27.994Z,10.00
2022-11-21T05:52:55.023Z,9.65
2022-11-21T05:55:21.760Z,9.92
2022-11-21T05:57:48.656Z,9.23
2022-11-21T06:00:16.131Z,9.09
2022-11-21T06:03:01.555Z,9.80
2022-11-21T06:05:28.618Z,9.33
2022-11-21T06:07:55.450Z,9.16
2022-11-21T06:10:22.320Z,9.53
2022-11-21T06:12:49.120Z,9.54
2022-11-21T06:15:16.074Z,9.59
2022-11-21T06:17:42.882Z,9.50
2022-11-21T06:20:10.487Z,9.59
2022-11-21T06:22:37.429Z,9.76
2022-11-21T06:25:04.602Z,9.72
2022-11-21T06:27:31.611Z,9.76
2022-11-21T06:29:58.661Z,9.69
2022-11-21T06:32:25.797Z,9.58
2022-11-21T06:34:52.657Z,9.27
2022-11-21T06:37:19.614Z,9.03
2022-11-21T06:39:46.465Z,9.15
2022-11-21T06:42:13.194Z,9.32
2022-11-21T06:44:40.036Z,9.48
2022-11-21T06:47:07.163Z,9.03
2022-11-21T06:49:34.336Z,9.29
2022-11-21T06:52:01.174Z,9.43
2022-11-21T06:54:27.958Z,9.01
2022-11-21T06:56:55.700Z,9.13
2022-11-21T06:59:22.502Z,9.51
2022-11-21T07:01:49.525Z,9.53
2022-11-21T07:04:17.714Z,9.50
2022-11-21T07:06:47.567Z,9.61
2022-11-21T07:12:22.020Z,9.26
2022-11-21T07:14:49.273Z,9.23
2022-11-21T07:17:16.300Z,9.38
2022-11-21T07:19:43.135Z,9.14
2022-11-21T07:22:09.858Z,9.38
2022-11-21T07:24:36.646Z,9.37
2022-11-21T07:27:06.582Z,9.20
2022-11-21T07:29:33.489Z,9.44
2022-11-21T07:32:00.249Z,9.42
2022-11-21T07:34:26.985Z,8.98
2022-11-21T07:36:54.122Z,8.93
2022-11-21T07:39:21.305Z,9.24
2022-11-21T07:41:48.150Z,9.39
2022-11-21T07:44:15.400Z,8.96
2022-11-21T07:46:42.188Z,8.94
2022-11-21T07:49:09.169Z,8.83
2022-11-21T07:51:36.035Z,8.93
2022-11-21T07:54:02.736Z,9.28
2022-11-21T07:56:29.514Z,8.93
2022-11-21T07:58:56.470Z,8.85
2022-11-21T08:01:23.235Z,9.06
2022-11-21T08:03:50.418Z,9.06
2022-11-21T08:06:17.389Z,8.96
2022-11-21T08:08:44.702Z,9.31
2022-11-21T08:11:11.588Z,9.29
2022-11-21T08:13:38.893Z,9.31
2022-11-21T08:16:05.976Z,9.42
2022-11-21T08:18:33.379Z,9.12
2022-11-21T08:21:04.182Z,9.13
2022-11-21T08:23:31.831Z,9.50
2022-11-21T08:25:59.049Z,9.29
2022-11-21T08:28:26.096Z,9.53
2022-11-21T08:30:53.360Z,9.43
2022-11-21T08:33:22.025Z,9.62
2022-11-21T08:35:48.955Z,9.61
2022-11-21T08:38:15.881Z,9.65
2022-11-21T08:40:42.684Z,9.61
2022-11-21T08:43:17.833Z,9.67
2022-11-21T08:45:44.805Z,9.44
2022-11-21T08:48:12.145Z,9.49
2022-11-21T08:50:39.325Z,9.63
2022-11-21T08:53:06.201Z,9.83
2022-11-21T08:55:33.013Z,9.85
2022-11-21T08:57:59.843Z,10.05
2022-11-21T09:00:27.229Z,9.67
2022-11-21T09:02:56.488Z,10.03
2022-11-21T09:05:23.293Z,10.30
2022-11-21T09:07:56.583Z,9.97
2022-11-21T09:10:23.919Z,9.98
2022-11-21T09:12:50.834Z,10.06
2022-11-21T09:15:36.690Z,10.33
2022-11-21T09:18:04.995Z,10.08
2022-11-21T09:20:34.299Z,10.26
2022-11-21T09:23:11.007Z,10.58
2022-11-21T09:25:37.899Z,10.78
2022-11-21T09:28:06.802Z,10.91
2022-11-21T09:30:34.195Z,10.78
2022-11-21T09:33:05.554Z,11.03
2022-11-21T09:35:32.540Z,10.37
2022-11-21T09:38:02.866Z,10.45
2022-11-21T09:40:31.457Z,10.42
2022-11-21T09:43:25.820Z,10.75
2022-11-21T09:45:58.043Z,10.64
2022-11-21T09:48:36.118Z,10.44
2022-11-21T09:51:08.095Z,10.10
2022-11-21T09:53:43.574Z,10.34
2022-11-21T09:56:16.110Z,10.19
2022-11-21T09:58:51.982Z,10.61
2022-11-21T10:01:18.919Z,10.71
2022-11-21T10:03:47.637Z,11.00
2022-11-21T10:06:33.076Z,10.58
2022-11-21T10:09:33.104Z,11.01
2022-11-21T10:12:24.529Z,11.22
2022-11-21T10:15:07.604Z,10.62
2022-11-21T10:18:16.982Z,11.08
2022-11-21T10:21:02.711Z,10.88
2022-11-21T10:23:36.762Z,10.74
2022-11-21T10:26:35.783Z,11.02
2022-11-21T10:29:17.420Z,11.02
2022-11-21T10:31:44.615Z,11.60
2022-11-21T10:34:13.944Z,11.05
2022-11-21T10:36:42.395Z,11.16
2022-11-21T10:39:29.437Z,11.05
2022-11-21T10:42:04.865Z,10.93
2022-11-21T10:44:50.275Z,10.81
2022-11-21T10:47:27.732Z,11.12
2022-11-21T10:50:03.891Z,11.27
2022-11-21T10:52:35.260Z,11.09
2022-11-21T10:55:09.309Z,10.58
2022-11-21T10:57:50.460Z,10.95
2022-11-21T11:00:24.251Z,11.54
2022-11-21T11:02:56.938Z,10.57
2022-11-21T11:05:28.797Z,10.92
2022-11-21T11:08:06.585Z,11.02
2022-11-21T11:10:38.586Z,11.01
2022-11-21T11:13:45.938Z,10.75
2022-11-21T11:16:18.143Z,11.35
2022-11-21T11:19:03.638Z,11.02
2022-11-21T11:21:42.352Z,10.68
2022-11-21T11:24:12.437Z,10.94
2022-11-21T11:26:48.917Z,10.72
2022-11-21T11:29:24.234Z,11.06
2022-11-21T11:31:59.443Z,10.74
2022-11-21T11:34:31.005Z,11.09
2022-11-21T11:37:16.618Z,11.11
2022-11-21T11:39:58.155Z,10.88
2022-11-21T11:43:10.926Z,11.17
2022-11-21T11:46:07.558Z,10.63
2022-11-21T11:48:56.574Z,10.91
2022-11-21T11:51:35.661Z,11.12
2022-11-21T11:54:34.711Z,10.98
2022-11-21T11:57:03.468Z,11.36
2022-11-21T11:59:35.333Z,10.65
2022-11-21T12:02:15.560Z,10.81
2022-11-21T12:04:59.921Z,11.08
2022-11-21T12:11:11.355Z,11.58
2022-11-21T12:13:39.708Z,11.34
2022-11-21T12:16:13.712Z,11.29
2022-11-21T12:18:52.669Z,10.93
2022-11-21T12:21:23.098Z,11.14
2022-11-21T12:23:51.994Z,11.22
2022-11-21T12:26:39.950Z,11.34
2022-11-21T12:29:28.439Z,11.72
2022-11-21T12:32:19.761Z,11.29
2022-11-21T12:35:17.501Z,11.25
2022-11-21T12:38:02.946Z,11.59
2022-11-21T12:40:43.208Z,11.83
2022-11-21T12:43:22.569Z,11.57
2022-11-21T12:46:09.940Z,11.34
2022-11-21T12:48:57.195Z,11.31
2022-11-21T12:52:11.860Z,11.76
2022-11-21T12:54:56.855Z,11.41
2022-11-21T12:57:38.217Z,11.54
2022-11-21T13:00:26.057Z,11.60
2022-11-21T13:03:02.004Z,11.16
2022-11-21T13:05:32.633Z,11.69
2022-11-21T13:08:08.664Z,11.70
2022-11-21T13:10:36.881Z,11.45
2022-11-21T13:13:29.251Z,11.40
2022-11-21T13:16:06.948Z,11.67
2022-11-21T13:18:43.869Z,11.64
2022-11-21T13:21:42.137Z,11.93
2022-11-21T13:24:09.599Z,11.23
2022-11-21T13:26:36.715Z,11.57
2022-11-21T13:29:16.561Z,11.51
2022-11-21T13:31:43.682Z,11.74
2022-11-21T13:34:32.403Z,12.12
2022-11-21T13:36:59.355Z,11.41
2022-11-21T13:39:34.308Z,11.62
2022-11-21T13:42:26.727Z,11.80
2022-11-21T13:44:55.760Z,11.72
2022-11-21T13:47:25.763Z,11.75
2022-11-21T13:50:06.740Z,11.53
2022-11-21T13:52:42.802Z,11.60
2022-11-21T13:55:33.583Z,11.59
2022-11-21T13:58:14.742Z,11.24
2022-11-21T14:01:19.047Z,11.69
2022-11-21T14:04:19.268Z,11.76
2022-11-21T14:06:46.431Z,11.53
2022-11-21T14:09:31.562Z,11.70
2022-11-21T14:12:02.373Z,11.65
2022-11-21T14:14:38.443Z,11.59
2022-11-21T14:17:42.519Z,11.95
2022-11-21T14:20:20.134Z,11.78
2022-11-21T14:23:06.570Z,11.61
2022-11-21T14:25:36.312Z,11.91
2022-11-21T14:28:07.106Z,12.12
2022-11-21T14:30:36.990Z,11.77
2022-11-21T14:33:23.668Z,11.63
2022-11-21T14:35:53.576Z,11.98
2022-11-21T14:38:24.843Z,11.72
2022-11-21T14:41:18.445Z,11.52
2022-11-21T14:43:45.285Z,11.88
2022-11-21T14:46:16.548Z,11.49
2022-11-21T14:48:44.303Z,11.54
2022-11-21T14:51:16.194Z,11.80
2022-11-21T14:53:43.768Z,11.71
2022-11-21T14:56:14.238Z,11.56
2022-11-21T14:58:41.580Z,11.68
2022-11-21T15:01:21.244Z,11.52
2022-11-21T15:04:01.544Z,11.69
2022-11-21T15:06:33.618Z,11.89
2022-11-21T15:10:11.449Z,11.88
2022-11-21T15:12:03.567Z,11.63
2022-11-21T15:14:47.269Z,11.89
2022-11-21T15:17:20.680Z,11.58
2022-11-21T15:20:10.992Z,11.65
2022-11-21T15:22:40.135Z,11.92
2022-11-21T15:25:09.871Z,11.96
2022-11-21T15:27:36.996Z,11.97
2022-11-21T15:30:19.303Z,12.03
2022-11-21T15:33:19.355Z,12.09
2022-11-21T15:35:56.917Z,11.75
2022-11-21T15:38:35.551Z,11.72
2022-11-21T15:41:08.317Z,12.05
2022-11-21T15:43:48.806Z,12.03
2022-11-21T15:46:24.763Z,11.58
2022-11-21T15:48:53.858Z,11.52
2022-11-21T15:51:51.474Z,11.76
2022-11-21T15:54:13.657Z,11.55
2022-11-21T15:56:40.787Z,11.58
2022-11-21T15:59:08.953Z,11.67
2022-11-21T16:01:36.569Z,11.68
2022-11-21T16:04:06.103Z,12.10
2022-11-21T16:06:32.978Z,12.19
2022-11-21T16:09:00.371Z,11.48
2022-11-21T16:11:29.531Z,11.79
2022-11-21T16:14:01.054Z,11.71
2022-11-21T16:16:31.454Z,11.82
2022-11-21T16:18:58.986Z,12.05
2022-11-21T16:21:26.571Z,11.61
2022-11-21T16:23:53.967Z,11.97
2022-11-21T16:26:20.941Z,11.76
2022-11-21T16:28:48.090Z,11.44
2022-11-21T16:31:31.617Z,11.28
2022-11-21T16:33:59.327Z,11.77
2022-11-21T16:36:27.841Z,11.44
2022-11-21T16:38:55.113Z,11.65
2022-11-21T16:41:22.993Z,11.72
2022-11-21T16:43:56.082Z,11.55
2022-11-21T16:46:24.690Z,11.38
2022-11-21T16:49:02.107Z,11.72
2022-11-21T16:51:29.805Z,11.53
2022-11-21T16:54:07.343Z,11.62
2022-11-21T16:56:36.149Z,11.71
2022-11-21T16:59:02.972Z,11.64
2022-11-21T17:01:29.910Z,11.59
2022-11-21T17:03:57.069Z,12.10
2022-11-21T17:06:29.306Z,11.66
2022-11-21T17:08:56.360Z,11.25
2022-11-21T17:11:32.370Z,11.36
2022-11-21T17:14:04.378Z,11.26
2022-11-21T17:16:32.166Z,11.65
2022-11-21T17:19:00.513Z,11.41
2022-11-21T17:21:28.293Z,11.83
2022-11-21T17:23:58.201Z,11.33
2022-11-21T17:26:27.129Z,11.21
2022-11-21T17:28:56.313Z,11.61
2022-11-21T17:31:24.232Z,11.24
2022-11-21T17:33:54.839Z,11.48
2022-11-21T17:36:24.300Z,11.02
2022-11-21T17:38:54.750Z,11.20
2022-11-21T17:41:23.041Z,11.00
2022-11-21T17:43:53.767Z,11.20
2022-11-21T17:46:21.059Z,11.11
2022-11-21T17:48:54.644Z,11.29
2022-11-21T17:51:23.997Z,11.20
2022-11-21T17:53:52.169Z,11.19
2022-11-21T17:56:23.855Z,10.94
2022-11-21T17:58:51.794Z,11.24
2022-11-21T18:01:19.966Z,11.25
2022-11-21T18:03:48.577Z,10.90
2022-11-21T18:06:17.237Z,10.93
2022-11-21T18:08:46.569Z,11.04
2022-11-21T18:11:18.636Z,11.20
2022-11-21T18:13:45.625Z,11.05
2022-11-21T18:16:14.570Z,10.98
2022-11-21T18:18:41.389Z,11.02
2022-11-21T18:21:10.529Z,11.02
2022-11-21T18:23:37.659Z,11.07
2022-11-21T18:26:09.912Z,11.03
2022-11-21T18:28:36.667Z,10.74
2022-11-21T18:31:10.786Z,10.77
2022-11-21T18:33:38.292Z,11.14
2022-11-21T18:36:06.833Z,11.03
2022-11-21T18:38:58.446Z,11.01
2022-11-21T18:41:27.744Z,10.71
2022-11-21T18:43:56.847Z,10.82
2022-11-21T18:46:25.215Z,10.65
2022-11-21T18:49:04.187Z,11.00
2022-11-21T18:51:32.464Z,10.76
2022-11-21T18:54:07.018Z,10.77
2022-11-21T18:56:37.426Z,10.84
2022-11-21T18:59:07.908Z,10.60
2022-11-21T19:01:39.970Z,10.87
2022-11-21T19:04:07.528Z,10.87
2022-11-21T19:06:35.910Z,10.83
2022-11-21T19:09:02.833Z,10.92
2022-11-21T19:11:30.222Z,11.03
2022-11-21T19:13:59.504Z,10.57
2022-11-21T19:16:28.054Z,10.99
2022-11-21T19:19:26.437Z,10.59
2022-11-21T19:21:42.674Z,10.57
2022-11-21T19:24:14.585Z,10.85
2022-11-21T19:26:44.819Z,11.00
2022-11-21T19:29:11.833Z,10.37
2022-11-21T19:31:44.655Z,10.73
2022-11-21T19:34:13.862Z,10.93
2022-11-21T19:36:40.987Z,11.04
2022-11-21T19:39:08.874Z,10.91
2022-11-21T19:41:36.096Z,10.73
2022-11-21T19:44:03.269Z,10.87
2022-11-21T19:46:33.118Z,10.47
2022-11-21T19:49:01.269Z,10.57
2022-11-21T19:51:30.402Z,10.52
2022-11-21T19:53:57.308Z,10.70
2022-11-21T19:56:25.705Z,10.78
2022-11-21T19:58:53.616Z,10.87
2022-11-21T20:01:23.048Z,10.58
2022-11-21T20:03:52.000Z,10.86
2022-11-21T20:06:26.310Z,10.88
2022-11-21T20:09:00.019Z,10.87
2022-11-21T20:11:28.258Z,10.68
2022-11-21T20:13:55.234Z,10.97
2022-11-21T20:16:24.612Z,11.11
2022-11-21T20:18:52.803Z,10.57
2022-11-21T20:21:20.048Z,10.93
2022-11-21T20:23:47.820Z,11.01
2022-11-21T20:26:17.965Z,10.45
2022-11-21T20:28:45.593Z,10.92
2022-11-21T20:31:18.392Z,10.54
2022-11-21T20:33:50.152Z,10.63
2022-11-21T20:36:19.664Z,11.19
2022-11-21T20:38:54.069Z,11.13
2022-11-21T20:41:22.538Z,11.20
2022-11-21T20:46:36.548Z,11.11
2022-11-21T20:49:03.452Z,11.07
2022-11-21T20:54:17.784Z,11.15
2022-11-21T20:56:44.760Z,11.16
2022-11-21T20:59:12.259Z,11.15
2022-11-21T21:01:39.301Z,10.90
2022-11-21T21:04:06.302Z,10.68
2022-11-21T21:06:33.226Z,10.45
2022-11-21T21:09:00.321Z,10.73
2022-11-21T21:14:14.483Z,11.11
2022-11-21T21:16:41.311Z,11.07
2022-11-21T21:19:08.275Z,11.22
2022-11-21T21:21:35.014Z,11.37
2022-11-21T21:24:06.816Z,11.06
2022-11-21T21:26:42.154Z,11.38
2022-11-21T21:29:11.626Z,11.28
2022-11-21T21:31:38.371Z,11.34
2022-11-21T21:34:05.946Z,11.03
2022-11-21T21:36:32.876Z,10.99
2022-11-21T21:39:00.517Z,11.00
2022-11-21T21:41:29.822Z,11.25
2022-11-21T21:43:58.025Z,11.26
2022-11-21T21:46:34.227Z,11.23
2022-11-21T21:49:04.595Z,11.36
2022-11-21T21:51:32.206Z,11.34
2022-11-21T21:53:59.826Z,11.21
2022-11-21T21:56:28.410Z,11.14
2022-11-21T21:58:56.679Z,11.33
2022-11-21T22:01:28.937Z,11.16
2022-11-21T22:03:58.580Z,11.05
2022-11-21T22:06:26.046Z,11.09
2022-11-21T22:08:56.817Z,11.22
2022-11-21T22:11:31.791Z,10.90
2022-11-21T22:14:00.792Z,11.21
2022-11-21T22:16:27.923Z,10.88
2022-11-21T22:18:55.176Z,10.61
2022-11-21T22:21:29.097Z,10.65
2022-11-21T22:24:23.616Z,10.67
2022-11-21T22:26:44.193Z,10.59
2022-11-21T22:29:11.049Z,10.65
2022-11-21T22:31:38.066Z,10.58
2022-11-21T22:34:04.997Z,10.70
2022-11-21T22:36:32.475Z,10.47
2022-11-21T22:38:59.360Z,10.60
2022-11-21T22:41:27.292Z,10.55
2022-11-21T22:43:56.205Z,10.31
2022-11-21T22:46:24.081Z,10.99
2022-11-21T22:48:53.515Z,10.91
2022-11-21T22:51:26.629Z,11.00
2022-11-21T22:54:00.301Z,10.70
2022-11-21T22:56:36.498Z,10.48
2022-11-21T22:59:04.436Z,10.77
2022-11-21T23:01:33.603Z,10.84
2022-11-21T23:04:00.481Z,10.46
2022-11-21T23:06:27.748Z,10.92
2022-11-21T23:08:55.852Z,10.77
2022-11-21T23:11:26.181Z,10.52
2022-11-21T23:13:54.658Z,10.39
2022-11-21T23:16:21.898Z,10.87
2022-11-21T23:18:51.545Z,10.98
2022-11-21T23:21:18.619Z,10.71
2022-11-21T23:23:45.443Z,10.73
2022-11-21T23:26:13.338Z,11.03
2022-11-21T23:28:44.472Z,10.82
2022-11-21T23:31:16.938Z,10.98
2022-11-21T23:33:47.323Z,10.51
2022-11-21T23:36:14.200Z,10.93
2022-11-21T23:38:44.497Z,10.89
2022-11-21T23:41:11.298Z,10.85
2022-11-21T23:43:38.287Z,10.49
2022-11-21T23:46:05.157Z,10.37
2022-11-21T23:48:31.957Z,10.41
2022-11-21T23:50:58.808Z,10.10
2022-11-21T23:53:25.899Z,10.46
2022-11-21T23:55:53.060Z,10.54
2022-11-21T23:58:19.777Z,10.96
